• Join FlightAware (Why Join?)
  • Login
  • US Flag 
02:36PM EDT


 

Airport Tracker/Info


-or-


 

Live Flight TrackerFlight Track Log ✈ SWA2236 ✈ 16-Jul-2013 ✈ KLAS - KJAX

Flight Track Log - Related Links

Times and Time Zones

All times are in EDT time to prevent confusion due to time zone crossing. See the SWA2236 flight status page for this flight to view local times or setup timezone preferences in your user account.

Time Position Orientation Groundspeed Altitude Reporting Facility
EDT Latitude Longitude Course Direction KTS MPH feet Rate Location/Type
02:41PM 36.0753 -115.1844 263° West 207 238 3,300  Level Los Angeles Center
02:42PM 36.0689 -115.2450 263° West 222 255 4,500 1,800 Climbing Los Angeles Center
02:43PM 35.9972 -115.2925 208° Southwest 273 314 7,000 1,500 Climbing Los Angeles Center
02:44PM 35.9247 -115.2869 176° South 259 298 7,800 660 Climbing Los Angeles Center
02:45PM 35.8611 -115.2361 147° Southeast 277 319 8,500 1,080 Climbing Los Angeles Center
02:46PM 35.8372 -115.1414 107° East 289 333 10,200 1,740 Climbing Los Angeles Center
02:47PM 35.8281 -115.0067 95° East 319 367 12,200 2,220 Climbing Los Angeles Center
02:48PM 35.8394 -114.8794 84° East 369 425 14,900 2,460 Climbing Los Angeles Center
02:49PM 35.8506 -114.7511 84° East 376 433 17,300 2,340 Climbing Los Angeles Center
02:50PM 35.8625 -114.6161 84° East 390 449 19,800 2,100 Climbing Los Angeles Center
02:51PM 35.8742 -114.4806 84° East 396 456 21,700 1,620 Climbing Los Angeles Center
02:52PM 35.8864 -114.3383 84° East 409 471 23,200 1,620 Climbing Los Angeles Center
02:53PM 35.9017 -114.1597 84° East 429 494 25,100 1,560 Climbing Los Angeles Center
02:54PM 35.9150 -114.0086 84° East 441 507 26,500 1,260 Climbing Los Angeles Center
02:55PM 35.9206 -113.8531 87° East 449 517 27,800 1,200 Climbing Los Angeles Center
02:56PM 35.8908 -113.6983 103° East 463 533 29,000 1,200 Climbing Los Angeles Center
02:57PM 35.8672 -113.5464 101° East 465 535 30,300 1,320 Climbing Los Angeles Center
02:58PM 35.8428 -113.3922 101° East 462 532 31,800 1,560 Climbing Los Angeles Center
02:59PM 35.8136 -113.2078 101° East 458 527 33,600 1,440 Climbing Los Angeles Center
03:00PM 35.7881 -113.0561 102° East 454 522 34,800 1,020 Climbing Los Angeles Center
03:01PM 35.7633 -112.9031 101° East 455 524 35,800 780 Climbing Los Angeles Center
03:02PM 35.7383 -112.7486 101° East 457 526 36,500 540 Climbing Los Angeles Center
03:03PM 35.7175 -112.6192 101° East 462 532 37,000 240 Climbing Los Angeles Center
03:04PM 35.6861 -112.4319 102° East 465 535 37,000  Level Los Angeles Center
03:05PM 35.6600 -112.2794 102° East 467 537 37,000  Level Los Angeles Center
03:07PM 35.6269 -112.0950 102° East 465 535 37,000  Level Los Angeles Center
03:07PM 35.6050 -111.9722 102° East 467 537 37,000  Level Albuquerque Center
03:08PM 35.5878 -111.8158 98° East 464 534 37,000  Level Albuquerque Center
03:09PM 35.5778 -111.6583 94° East 465 535 37,000  Level Albuquerque Center
03:10PM 35.5667 -111.5019 95° East 463 533 37,000  Level Albuquerque Center
03:11PM 35.5536 -111.3078 95° East 466 536 37,000  Level Albuquerque Center
03:13PM 35.5428 -111.1553 95° East 468 539 37,000  Level Albuquerque Center
03:14PM 35.5322 -111.0036 95° East 468 539 37,000  Level Albuquerque Center
03:15PM 35.5203 -110.8264 95° East 467 537 37,000  Level Albuquerque Center
03:16PM 35.5089 -110.6764 95° East 466 536 37,000  Level Albuquerque Center
03:17PM 35.4956 -110.4992 95° East 465 535 37,000  Level Albuquerque Center
03:18PM 35.4844 -110.3486 95° East 465 535 37,000  Level Albuquerque Center
03:19PM 35.4733 -110.1989 95° East 463 533 37,000  Level Albuquerque Center
03:20PM 35.4600 -110.0228 95° East 464 534 37,000  Level Albuquerque Center
03:21PM 35.4478 -109.8717 96° East 466 536 37,000  Level Albuquerque Center
03:23PM 35.4217 -109.5456 96° East 465 535 37,000  Level Albuquerque Center
03:24PM 35.4067 -109.3681 96° East 468 539 37,000  Level Albuquerque Center
03:25PM 35.3936 -109.2189 96° East 465 535 37,000  Level Albuquerque Center
03:26PM 35.3817 -109.0697 96° East 462 532 37,000  Level Albuquerque Center
03:27PM 35.3669 -108.8975 96° East 459 528 37,000  Level Albuquerque Center
03:28PM 35.3533 -108.7500 96° East 459 528 37,000  Level Albuquerque Center
03:29PM 35.3375 -108.5781 96° East 458 527 37,000  Level Albuquerque Center
03:30PM 35.3239 -108.4292 96° East 459 528 37,000  Level Albuquerque Center
03:31PM 35.3089 -108.2553 96° East 461 531 37,000  Level Albuquerque Center
03:32PM 35.2944 -108.1050 97° East 464 534 37,000  Level Albuquerque Center
03:33PM 35.2786 -107.9306 96° East 464 534 37,000  Level Albuquerque Center
03:34PM 35.2642 -107.7803 97° East 464 534 37,000  Level Albuquerque Center
03:35PM 35.2489 -107.6300 97° East 465 535 37,000  Level Albuquerque Center
03:36PM 35.2300 -107.4606 98° East 461 531 37,000  Level Albuquerque Center
03:37PM 35.2147 -107.3036 97° East 463 533 37,100  Climbing Albuquerque Center
03:38PM 35.1978 -107.1333 97° East 465 535 37,000 -60 Descending Albuquerque Center
03:39PM 35.1822 -106.9864 97° East 457 526 37,000  Level Albuquerque Center
03:40PM 35.1669 -106.8403 97° East 453 521 37,000  Level Albuquerque Center
03:41PM 35.1506 -106.6661 97° East 461 531 37,000  Level Albuquerque Center
03:42PM 35.1311 -106.5156 99° East 472 543 37,000  Level Albuquerque Center
03:43PM 35.1133 -106.3586 98° East 468 539 37,000  Level Albuquerque Center
03:44PM 35.0964 -106.2050 98° East 459 528 37,000  Level Albuquerque Center
03:45PM 35.0789 -106.0536 98° East 453 521 37,000  Level Albuquerque Center
03:46PM 35.0614 -105.9006 98° East 454 522 37,000  Level Albuquerque Center
03:47PM 35.0425 -105.7367 98° East 451 519 37,000  Level Albuquerque Center
03:48PM 35.0239 -105.5828 98° East 453 521 37,000  Level Albuquerque Center
03:49PM 35.0031 -105.4039 98° East 453 521 37,000  Level Albuquerque Center
03:50PM 34.9856 -105.2511 98° East 452 520 37,000  Level Albuquerque Center
03:51PM 34.9661 -105.0972 99° East 456 525 37,000  Level Albuquerque Center
03:52PM 34.9483 -104.9436 98° East 455 524 37,000  Level Albuquerque Center
03:54PM 34.9292 -104.7903 99° East 455 524 37,000  Level Albuquerque Center
03:55PM 34.9233 -104.6386 93° East 450 518 37,000  Level Albuquerque Center
03:56PM 34.9231 -104.4908 90° East 439 505 37,000  Level Albuquerque Center
03:57PM 34.9225 -104.3419 90° East 439 505 37,000  Level Albuquerque Center
03:58PM 34.9261 -104.1931 88° East 439 505 37,000  Level Albuquerque Center
03:59PM 34.9319 -104.0192 88° East 441 507 37,000  Level Albuquerque Center
04:00PM 34.9247 -103.8703 93° East 442 509 37,000  Level Albuquerque Center
04:01PM 34.9031 -103.7222 100° East 443 510 37,000  Level Albuquerque Center
04:02PM 34.8836 -103.5733 99° East 442 509 37,000  Level Albuquerque Center
04:03PM 34.8625 -103.4236 100° East 445 512 37,000  Level Albuquerque Center
04:04PM 34.8414 -103.2725 100° East 448 516 37,000  Level Albuquerque Center
04:05PM 34.8197 -103.1231 100° East 447 514 37,000  Level Albuquerque Center
04:06PM 34.7989 -102.9736 100° East 446 513 37,000  Level Albuquerque Center
04:07PM 34.7772 -102.8250 100° East 443 510 37,000  Level Albuquerque Center
04:08PM 34.7558 -102.6769 100° East 442 509 37,000  Level Albuquerque Center
04:09PM 34.7317 -102.5217 101° East 441 507 37,000  Level Albuquerque Center
04:10PM 34.7100 -102.3781 100° East 436 502 37,000  Level Albuquerque Center
04:11PM 34.6886 -102.2356 100° East 433 498 37,000  Level Albuquerque Center
04:12PM 34.6622 -102.0667 101° East 428 493 37,000  Level Albuquerque Center
04:13PM 34.6414 -101.9278 100° East 424 488 37,000  Level Albuquerque Center
04:14PM 34.6211 -101.7894 100° East 421 484 37,000  Level Albuquerque Center
04:15PM 34.5989 -101.6531 101° East 417 480 37,000  Level Albuquerque Center
04:16PM 34.5775 -101.5147 101° East 419 482 37,000  Level Albuquerque Center
04:17PM 34.5564 -101.3750 100° East 421 484 37,000  Level Albuquerque Center
04:18PM 34.5342 -101.2386 101° East 418 481 37,000  Level Albuquerque Center
04:19PM 34.5083 -101.0761 101° East 414 476 37,000  Level Albuquerque Center
04:20PM 34.4869 -100.9397 101° East 413 475 37,000  Level Albuquerque Center
04:21PM 34.4642 -100.8039 101° East 415 478 37,000  Level Albuquerque Center
04:22PM 34.4417 -100.6647 101° East 419 482 37,000  Level Albuquerque Center
04:23PM 34.4192 -100.5261 101° East 422 486 37,000  Level Albuquerque Center
04:24PM 34.3964 -100.3878 101° East 421 484 37,000  Level Albuquerque Center
04:25PM 34.3728 -100.2492 102° East 422 486 37,000  Level Albuquerque Center
04:27PM 34.3394 -100.0519 102° East 417 480 37,000  Level Fort Worth Center
04:28PM 34.3169 -99.9256 102° East 417 480 37,000  Level Fort Worth Center
04:29PM 34.2928 -99.7789 101° East 423 487 37,000  Level Fort Worth Center
04:30PM 34.2683 -99.6350 102° East 428 493 37,000  Level Fort Worth Center
04:31PM 34.2436 -99.4936 102° East 433 498 37,000  Level Fort Worth Center
04:32PM 34.2189 -99.3500 102° East 428 493 37,000  Level Fort Worth Center
04:33PM 34.1917 -99.2036 103° East 433 498 37,000  Level Fort Worth Center
04:34PM 34.1625 -99.0525 103° East 433 498 37,000  Level Fort Worth Center
04:35PM 34.1392 -98.9117 101° East 427 491 37,000  Level Fort Worth Center
04:36PM 34.1117 -98.7656 103° East 432 497 37,000  Level Fort Worth Center
04:37PM 34.0900 -98.6372 101° East 432 497 37,000  Level Fort Worth Center
04:38PM 34.0622 -98.4942 103° East 432 497 37,000  Level Fort Worth Center
04:39PM 34.0383 -98.3483 101° East 432 497 37,000  Level Fort Worth Center
04:40PM 34.0122 -98.2078 103° East 432 497 37,000  Level Fort Worth Center
04:41PM 33.9858 -98.0647 103° East 432 497 37,000  Level Fort Worth Center
04:42PM 33.9572 -97.9217 104° East 432 497 37,000  Level Fort Worth Center
04:43PM 33.9308 -97.7764 102° East 432 497 37,000  Level Fort Worth Center
04:44PM 33.9039 -97.6336 103° East 432 497 37,000  Level Fort Worth Center
04:45PM 33.8750 -97.4911 104° East 432 497 37,000  Level Fort Worth Center
04:46PM 33.8497 -97.3483 102° East 432 497 37,000  Level Fort Worth Center
04:47PM 33.8206 -97.2036 104° East 432 497 37,000  Level Fort Worth Center
04:48PM 33.7931 -97.0611 103° East 432 497 37,000  Level Fort Worth Center
04:49PM 33.7633 -96.9164 104° East 432 497 37,000  Level Fort Worth Center
04:50PM 33.7356 -96.7767 103° East 432 497 37,000  Level Fort Worth Center
04:51PM 33.7078 -96.6344 103° East 432 497 37,000  Level Fort Worth Center
04:52PM 33.6794 -96.4950 104° East 432 497 37,000  Level Fort Worth Center
04:53PM 33.6514 -96.3556 104° East 432 497 37,000  Level Fort Worth Center
04:54PM 33.6231 -96.2111 103° East 432 497 37,000  Level Fort Worth Center
04:55PM 33.5944 -96.0769 104° East 426 490 37,000  Level Fort Worth Center
04:56PM 33.5636 -95.9378 105° East 426 490 37,000  Level Fort Worth Center
04:57PM 33.5347 -95.7936 103° East 433 498 37,000  Level Fort Worth Center
04:58PM 33.5036 -95.6522 105° East 433 498 37,000  Level Fort Worth Center
04:59PM 33.4700 -95.5011 105° East 433 498 37,000  Level Fort Worth Center
05:00PM 33.4408 -95.3597 104° East 433 498 37,000  Level Fort Worth Center
05:01PM 33.4133 -95.2186 103° East 433 498 37,000  Level Fort Worth Center
05:02PM 33.3817 -95.0750 105° East 433 498 37,000  Level Fort Worth Center
05:03PM 33.3517 -94.9317 104° East 433 498 37,000  Level Fort Worth Center
05:04PM 33.3175 -94.7908 106° East 433 498 37,000  Level Fort Worth Center
05:05PM 33.2894 -94.6475 103° East 433 498 37,000 420 Level Fort Worth Center
05:06PM 33.2569 -94.5069 105° East 433 498 37,900 900 Climbing Fort Worth Center
05:07PM 33.2244 -94.3667 105° East 433 498 38,800 540 Climbing Fort Worth Center
05:08PM 33.1939 -94.2261 105° East 433 498 39,000 60 Climbing Fort Worth Center
05:09PM 33.1633 -94.0931 105° East 438 504 39,000  Level Fort Worth Center
05:10PM 33.1303 -93.9506 105° East 438 504 39,000  Level Fort Worth Center
05:11PM 33.1011 -93.8078 104° East 438 504 39,000  Level Fort Worth Center
05:12PM 33.0719 -93.6678 104° East 438 504 39,000  Level Fort Worth Center
05:13PM 33.0383 -93.5256 106° East 438 504 39,000  Level Fort Worth Center
05:14PM 33.0089 -93.3856 104° East 433 498 39,000  Level Fort Worth Center
05:15PM 32.9753 -93.2458 106° East 433 498 39,000  Level Fort Worth Center
05:16PM 32.9433 -93.1064 105° East 433 498 39,000  Level Fort Worth Center
05:17PM 32.9092 -92.9669 106° East 433 498 39,000  Level Fort Worth Center
05:18PM 32.8792 -92.8250 104° East 433 498 39,000  Level Fort Worth Center
05:19PM 32.8467 -92.6808 105° East 433 498 39,000  Level Fort Worth Center
05:20PM 32.8142 -92.5417 105° East 433 498 39,000  Level Fort Worth Center
05:21PM 32.7814 -92.4003 105° East 433 498 39,000  Level Fort Worth Center
05:23PM 32.7117 -92.1228 107° East 432 497 39,000  Level Memphis Center
05:24PM 32.6739 -91.9811 108° East 443 510 39,000  Level Memphis Center
05:25PM 32.6403 -91.8425 106° East 443 510 39,000  Level Memphis Center
05:26PM 32.6064 -91.7014 106° East 443 510 39,000  Level Memphis Center
05:27PM 32.5703 -91.5553 106° East 443 510 39,000  Level Memphis Center
05:28PM 32.5339 -91.4144 107° East 448 516 39,000  Level Memphis Center
05:29PM 32.4994 -91.2736 106° East 442 509 39,000  Level Memphis Center
05:30PM 32.4650 -91.1331 106° East 442 509 39,000  Level Memphis Center
05:31PM 32.4281 -90.9900 107° East 442 509 39,000  Level Memphis Center
05:32PM 32.3914 -90.8469 107° East 442 509 39,000  Level Memphis Center
05:33PM 32.3561 -90.7017 106° East 442 509 39,000  Level Memphis Center
05:34PM 32.3189 -90.5589 107° East 442 509 39,000  Level Memphis Center
05:35PM 32.2817 -90.4139 107° East 447 514 39,000  Level Memphis Center
05:36PM 32.2461 -90.2739 107° East 447 514 39,000  Level Memphis Center
05:37PM 32.2042 -90.1119 107° East 454 522 39,000  Level Memphis Center
05:38PM 32.1661 -89.9672 107° East 454 522 39,000  Level Memphis Center
05:39PM 32.1300 -89.8250 107° East 459 528 39,000  Level Memphis Center
05:40PM 32.0917 -89.6831 108° East 459 528 39,000  Level Memphis Center
05:41PM 32.0556 -89.5436 107° East 459 528 39,000  Level Memphis Center
05:42PM 32.0147 -89.3944 108° East 459 528 39,000  Level Memphis Center
05:43PM 31.9781 -89.2528 107° East 459 528 39,000  Level Memphis Center
05:44PM 31.9414 -89.1283 109° East 459 528 39,000  Level Memphis Center
05:45PM 31.9044 -88.9822 107° East 451 519 39,000  Level Memphis Center
05:46PM 31.8653 -88.8408 108° East 451 519 39,000  Level Memphis Center
05:48PM 31.7653 -88.4719 108° East 472 543 39,000  Level Atlanta Center
05:49PM 31.7283 -88.3311 107° East 461 531 39,000  Level Atlanta Center
05:50PM 31.6894 -88.1853 107° East 461 531 39,000  Level Atlanta Center
05:52PM 31.6086 -87.8953 108° East 469 540 39,000  Level Jacksonville Center
05:53PM 31.5661 -87.7517 109° East 469 540 39,000  Level Jacksonville Center
05:54PM 31.5256 -87.6083 108° East 469 540 39,000  Level Jacksonville Center
05:55PM 31.4811 -87.4550 109° East 469 540 39,000  Level Jacksonville Center
05:56PM 31.4422 -87.3144 108° East 464 534 39,000  Level Jacksonville Center
05:57PM 31.3992 -87.1689 109° East 464 534 39,000  Level Jacksonville Center
05:58PM 31.3600 -87.0331 109° East 453 521 39,000  Level Jacksonville Center
05:59PM 31.3183 -86.9000 110° East 442 509 39,000  Level Jacksonville Center
06:00PM 31.2786 -86.7647 109° East 442 509 39,000  Level Jacksonville Center
06:01PM 31.2389 -86.6294 109° East 436 502 39,000  Level Jacksonville Center
06:02PM 31.1989 -86.4967 109° East 436 502 39,000  Level Jacksonville Center
06:03PM 31.1606 -86.3667 109° East 430 495 39,000  Level Jacksonville Center
06:04PM 31.1203 -86.2342 110° East 430 495 39,000 -300 Level Jacksonville Center
06:05PM 31.0819 -86.1042 109° East 430 495 38,400 -780 Descending Jacksonville Center
06:06PM 31.0436 -85.9694 108° East 430 495 37,500 -960 Descending Jacksonville Center
06:07PM 31.0050 -85.8375 109° East 430 495 36,500 -960 Descending Jacksonville Center
06:08PM 30.9661 -85.7053 109° East 430 495 35,600 -960 Descending Jacksonville Center
06:09PM 30.9272 -85.5733 109° East 430 495 34,600 -1,020 Descending Jacksonville Center
06:10PM 30.8842 -85.4414 111° Southeast 430 495 33,600 -840 Descending Jacksonville Center
06:11PM 30.8447 -85.3122 110° East 430 495 33,000 -300 Descending Jacksonville Center
06:12PM 30.8222 -85.1786 101° East 425 489 33,000 -60 Level Jacksonville Center
06:13PM 30.7997 -85.0403 101° East 420 483 32,900 -960 Descending Jacksonville Center
06:14PM 30.7747 -84.9067 102° East 420 483 31,100 -1,740 Descending Jacksonville Center
06:15PM 30.7517 -84.7708 101° East 420 483 29,500 -1,080 Descending Jacksonville Center
06:16PM 30.7344 -84.6617 100° East 426 490 29,000 -300 Descending Jacksonville Center
06:17PM 30.7092 -84.5139 101° East 426 490 29,000  Level Jacksonville Center
06:18PM 30.6839 -84.3758 102° East 431 496 29,000  Level Jacksonville Center
06:19PM 30.6622 -84.2403 100° East 431 496 29,000  Level Jacksonville Center
06:20PM 30.6367 -84.0997 102° East 431 496 29,000  Level Jacksonville Center
06:21PM 30.6128 -83.9642 102° East 431 496 29,000  Level Jacksonville Center
06:22PM 30.5889 -83.8264 101° East 431 496 29,000 -900 Level Jacksonville Center
06:23PM 30.5667 -83.6983 101° East 426 490 27,200 -2,160 Descending Jacksonville Center
06:24PM 30.5425 -83.5608 102° East 408 470 24,700 -1,680 Descending Jacksonville Center
06:25PM 30.5347 -83.4378 94° East 390 449 23,900 -900 Descending Jacksonville Center
06:26PM 30.5289 -83.3147 93° East 390 449 22,900 -1,020 Descending Jacksonville Center
06:27PM 30.5272 -83.1939 91° East 384 442 21,900 -1,020 Descending Jacksonville Center
06:28PM 30.5211 -83.0758 93° East 379 436 20,900 -1,020 Descending Jacksonville Center
06:29PM 30.5169 -82.9553 92° East 374 430 19,900 -1,020 Descending Jacksonville Center
06:30PM 30.5150 -82.8419 91° East 362 417 18,900 -1,020 Descending Jacksonville Center
06:31PM 30.5108 -82.7286 92° East 362 417 17,900 -1,380 Descending Jacksonville Center
06:32PM 30.5042 -82.6178 94° East 349 402 16,200 -1,980 Descending Jacksonville Center
06:33PM 30.5042 -82.5622 90° East 339 390 14,900 -2,400 Descending Jacksonville Center
06:33PM 30.5206 -82.5067 71° East 339 390 13,800 -2,100 Descending Jacksonville Center
06:34PM 30.5578 -82.4078 66° East 329 379 11,800 -1,800 Descending Jacksonville Center
06:35PM 30.5639 -82.3158 86° East 315 362 10,300 -1,380 Descending Jacksonville Center
06:36PM 30.5467 -82.2244 102° East 299 344 9,200 -1,560 Descending Jacksonville Center
06:37PM 30.5275 -82.1400 105° East 270 311 7,300 -1,800 Descending Jacksonville Center
06:38PM 30.5122 -82.0533 102° East 276 318 5,600 -1,680 Descending Jacksonville Center
06:39PM 30.4950 -81.9692 103° East 271 312 4,000 -1,500 Descending Jacksonville Center
06:40PM 30.4839 -81.8969 100° East 254 292 2,700 -1,080 Descending Jacksonville Center
06:41PM 30.4856 -81.8367 88° East 215 247 1,900 -660 Descending Jacksonville Center
06:42PM 30.4853 -81.7933 90° East 170 196 1,400 -600 Descending Jacksonville Center
06:43PM 30.4867 -81.7403 88° East 140 161 700 -600 Descending Jacksonville Center
06:45PM 30.4941 -81.6879 115° Southeast  Level Estimated
06:52PM 30.4941 -81.6879 311° West  Level Estimated